Cushing, Oklahoma
Current Conditions -  °F | °C
As of 12:35 PM on Thursday 30 Oct 2014 (Local Time) from KCUH Reporting Station
Clear Clear  
Wind Chill: 70°   Ceiling: Unl
Heat Index: 70°   Visibility: 10mi
Dew Point: 50°   Wind: 14mph
Humidity: 49%   Direction: 310°NW
Pressure: 30.13"   Gusts: 20mph
Location:  35.99°N, 96.77°W
Report Text: KCUH 301735Z AUTO 31012G17KT 10SM CLR 21/10 A3013 RMK AO2
Loading
Personal Weather Stations






























Interactive Weather Map New forecast layout! Learn more

10-Day Weather Forecast

Advertisements
Track Severe Weather on mobile